createdAt,value
2024-01-20T00:00:14.529Z,100310.91
2024-01-20T00:02:41.132Z,100301.75
2024-01-20T00:05:08.580Z,100312.44
2024-01-20T00:07:35.393Z,100314.56
2024-01-20T00:10:02.424Z,100294.53
2024-01-20T00:12:31.519Z,100329.94
2024-01-20T00:14:58.219Z,100283.28
2024-01-20T00:17:27.742Z,100317.81
2024-01-20T00:19:56.170Z,100316.84
2024-01-20T00:22:23.896Z,100269.34
2024-01-20T00:24:51.155Z,100333.25
2024-01-20T00:27:18.737Z,100335.75
2024-01-20T00:29:46.650Z,100329.91
2024-01-20T00:32:13.900Z,100327.53
2024-01-20T00:34:51.477Z,100318.03
2024-01-20T00:37:26.774Z,100321.84
2024-01-20T00:39:53.314Z,100273.53
2024-01-20T00:42:19.779Z,100321.53
2024-01-20T00:44:46.457Z,100332.75
2024-01-20T00:47:13.083Z,100322.66
2024-01-20T00:49:39.872Z,100340.38
2024-01-20T00:52:06.808Z,100359.03
2024-01-20T00:54:33.435Z,100325.28
2024-01-20T00:56:59.955Z,100360.22
2024-01-20T00:59:26.441Z,100357.63
2024-01-20T01:01:53.016Z,100355.91
2024-01-20T01:04:19.530Z,100349.78
2024-01-20T01:06:46.016Z,100379.97
2024-01-20T01:09:12.602Z,100332.28
2024-01-20T01:11:39.153Z,100390.56
2024-01-20T01:14:05.711Z,100333.03
2024-01-20T01:16:32.235Z,100374.00
2024-01-20T01:18:59.002Z,100373.88
2024-01-20T01:21:25.475Z,100394.19
2024-01-20T01:23:52.017Z,100391.88
2024-01-20T01:26:18.992Z,100387.34
2024-01-20T01:28:45.853Z,100389.22
2024-01-20T01:31:12.780Z,100375.41
2024-01-20T01:33:39.356Z,100383.91
2024-01-20T01:36:06.555Z,100375.81
2024-01-20T01:38:33.358Z,100375.56
2024-01-20T01:41:00.181Z,100395.28
2024-01-20T01:43:26.795Z,100390.81
2024-01-20T01:45:53.459Z,100394.81
2024-01-20T01:48:20.555Z,100392.06
2024-01-20T01:50:48.086Z,100381.09
2024-01-20T01:53:15.303Z,100383.22
2024-01-20T01:55:44.845Z,100381.50
2024-01-20T01:58:11.362Z,100363.97
2024-01-20T02:00:38.450Z,100367.56
2024-01-20T02:03:05.681Z,100393.84
2024-01-20T02:05:32.376Z,100382.03
2024-01-20T02:07:59.867Z,100407.78
2024-01-20T02:10:26.438Z,100409.41
2024-01-20T02:12:53.580Z,100401.94
2024-01-20T02:15:20.275Z,100426.88
2024-01-20T02:17:53.980Z,100380.78
2024-01-20T02:20:20.969Z,100411.66
2024-01-20T02:22:47.910Z,100397.88
2024-01-20T02:25:14.453Z,100414.38
2024-01-20T02:27:41.035Z,100391.47
2024-01-20T02:30:08.447Z,100421.47
2024-01-20T02:32:35.127Z,100414.84
2024-01-20T02:35:01.844Z,100425.94
2024-01-20T02:37:28.436Z,100417.72
2024-01-20T02:39:54.921Z,100441.28
2024-01-20T02:42:21.532Z,100427.94
2024-01-20T02:44:48.181Z,100389.81
2024-01-20T02:47:14.877Z,100419.47
2024-01-20T02:49:41.566Z,100425.78
2024-01-20T02:52:08.370Z,100425.06
2024-01-20T02:54:35.015Z,100426.69
2024-01-20T02:57:01.651Z,100433.06
2024-01-20T02:59:28.197Z,100449.28
2024-01-20T03:01:54.803Z,100447.34
2024-01-20T03:04:21.407Z,100458.81
2024-01-20T03:06:48.139Z,100432.50
2024-01-20T03:09:15.959Z,100448.47
2024-01-20T03:11:45.483Z,100424.19
2024-01-20T03:14:12.184Z,100407.34
2024-01-20T03:16:39.509Z,100414.09
2024-01-20T03:19:07.545Z,100450.13
2024-01-20T03:21:35.392Z,100452.63
2024-01-20T03:24:02.229Z,100467.31
2024-01-20T03:26:29.057Z,100460.59
2024-01-20T03:28:55.569Z,100474.06
2024-01-20T03:31:22.153Z,100485.50
2024-01-20T03:33:48.731Z,100474.28
2024-01-20T03:36:15.395Z,100471.03
2024-01-20T03:38:41.910Z,100472.16
2024-01-20T03:41:08.512Z,100481.50
2024-01-20T03:43:35.033Z,100469.28
2024-01-20T03:46:01.577Z,100484.88
2024-01-20T03:48:28.148Z,100459.69
2024-01-20T03:50:54.742Z,100498.69
2024-01-20T03:53:21.335Z,100467.78
2024-01-20T03:55:47.838Z,100500.19
2024-01-20T03:58:14.309Z,100479.66
2024-01-20T04:00:40.934Z,100501.44
2024-01-20T04:03:07.574Z,100473.78
2024-01-20T04:05:34.196Z,100456.94
2024-01-20T04:08:00.734Z,100509.84
2024-01-20T04:10:27.328Z,100511.31
2024-01-20T04:12:53.844Z,100531.03
2024-01-20T04:15:20.367Z,100525.69
2024-01-20T04:17:47.135Z,100525.44
2024-01-20T04:20:13.689Z,100520.06
2024-01-20T04:22:40.224Z,100524.19
2024-01-20T04:25:07.342Z,100519.09
2024-01-20T04:27:35.208Z,100518.44
2024-01-20T04:30:01.889Z,100510.50
2024-01-20T04:32:28.639Z,100471.22
2024-01-20T04:34:55.094Z,100492.78
2024-01-20T04:37:21.660Z,100500.38
2024-01-20T04:39:48.409Z,100496.03
2024-01-20T04:42:14.962Z,100511.97
2024-01-20T04:44:41.447Z,100519.22
2024-01-20T04:47:07.954Z,100530.19
2024-01-20T04:49:34.693Z,100498.78
2024-01-20T04:52:03.191Z,100540.66
2024-01-20T04:54:30.125Z,100543.50
2024-01-20T04:56:58.491Z,100508.47
2024-01-20T04:59:25.690Z,100541.16
2024-01-20T05:01:53.924Z,100550.34
2024-01-20T05:04:20.617Z,100551.34
2024-01-20T05:06:47.400Z,100559.31
2024-01-20T05:09:14.819Z,100571.28
2024-01-20T05:11:41.538Z,100568.31
2024-01-20T05:14:08.859Z,100568.31
2024-01-20T05:16:35.522Z,100579.03
2024-01-20T05:19:02.723Z,100571.41
2024-01-20T05:21:29.475Z,100576.75
2024-01-20T05:23:58.086Z,100564.81
2024-01-20T05:26:24.954Z,100570.91
2024-01-20T05:28:51.497Z,100580.78
2024-01-20T05:31:18.249Z,100530.13
2024-01-20T05:33:44.953Z,100588.00
2024-01-20T05:36:13.889Z,100590.75
2024-01-20T05:38:40.430Z,100583.50
2024-01-20T05:41:08.747Z,100578.00
2024-01-20T05:43:35.490Z,100591.09
2024-01-20T05:46:06.494Z,100580.47
2024-01-20T05:48:34.052Z,100602.41
2024-01-20T05:51:00.713Z,100604.75
2024-01-20T05:53:27.757Z,100610.38
2024-01-20T05:55:54.207Z,100607.38
2024-01-20T05:58:20.687Z,100615.88
2024-01-20T06:00:47.251Z,100628.72
2024-01-20T06:03:13.779Z,100594.03
2024-01-20T06:05:40.311Z,100632.84
2024-01-20T06:08:07.041Z,100622.94
2024-01-20T06:10:33.520Z,100637.44
2024-01-20T06:13:00.071Z,100649.28
2024-01-20T06:15:26.691Z,100650.50
2024-01-20T06:17:53.357Z,100653.72
2024-01-20T06:20:20.751Z,100651.09
2024-01-20T06:22:47.360Z,100662.06
2024-01-20T06:25:14.312Z,100661.41
2024-01-20T06:27:46.355Z,100665.91
2024-01-20T06:30:15.753Z,100639.44
2024-01-20T06:32:42.308Z,100651.97
2024-01-20T06:35:09.752Z,100672.72
2024-01-20T06:37:36.490Z,100638.16
2024-01-20T06:40:03.374Z,100680.81
2024-01-20T06:42:30.040Z,100680.56
2024-01-20T06:44:58.039Z,100645.25
2024-01-20T06:47:27.301Z,100675.22
2024-01-20T06:49:54.863Z,100672.25
2024-01-20T06:52:21.880Z,100693.72
2024-01-20T06:54:49.332Z,100701.59
2024-01-20T06:57:15.890Z,100675.88
2024-01-20T06:59:42.444Z,100719.31
2024-01-20T07:02:09.695Z,100693.50
2024-01-20T07:04:36.338Z,100712.84
2024-01-20T07:07:03.008Z,100718.63
2024-01-20T07:09:29.582Z,100716.53
2024-01-20T07:11:58.918Z,100732.50
2024-01-20T07:14:26.355Z,100737.50
2024-01-20T07:16:52.913Z,100737.03
2024-01-20T07:19:19.434Z,100741.41
2024-01-20T07:21:45.949Z,100705.41
2024-01-20T07:24:12.598Z,100753.25
2024-01-20T07:26:39.154Z,100756.63
2024-01-20T07:29:05.697Z,100726.38
2024-01-20T07:31:32.272Z,100759.88
2024-01-20T07:33:59.493Z,100776.00
2024-01-20T07:36:26.208Z,100787.09
2024-01-20T07:38:52.787Z,100781.25
2024-01-20T07:41:19.534Z,100787.72
2024-01-20T07:43:46.108Z,100775.25
2024-01-20T07:46:13.353Z,100790.84
2024-01-20T07:48:40.178Z,100791.84
2024-01-20T07:51:06.769Z,100799.59
2024-01-20T07:53:33.300Z,100797.97
2024-01-20T07:55:59.833Z,100809.47
2024-01-20T07:58:26.349Z,100809.72
2024-01-20T08:00:52.995Z,100780.97
2024-01-20T08:03:19.571Z,100805.97
2024-01-20T08:05:47.031Z,100816.84
2024-01-20T08:08:13.736Z,100808.59
2024-01-20T08:10:40.492Z,100815.75
2024-01-20T08:13:07.155Z,100817.84
2024-01-20T08:15:33.758Z,100793.88
2024-01-20T08:18:00.617Z,100823.72
2024-01-20T08:20:27.304Z,100818.22
2024-01-20T08:22:53.835Z,100830.72
2024-01-20T08:25:20.403Z,100826.84
2024-01-20T08:27:46.994Z,100824.59
2024-01-20T08:30:14.043Z,100749.03
2024-01-20T08:32:41.609Z,100827.72
2024-01-20T08:35:09.864Z,100833.47
2024-01-20T08:37:36.413Z,100827.19
2024-01-20T08:40:03.683Z,100841.22
2024-01-20T08:42:30.336Z,100834.97
2024-01-20T08:44:56.987Z,100834.97
2024-01-20T08:47:23.531Z,100847.44
2024-01-20T08:49:52.922Z,100844.06
2024-01-20T08:52:20.107Z,100839.91
2024-01-20T08:54:46.888Z,100851.78
2024-01-20T08:57:13.652Z,100829.91
2024-01-20T08:59:40.180Z,100842.28
2024-01-20T09:02:07.102Z,100851.16
2024-01-20T09:04:33.707Z,100842.91
2024-01-20T09:07:00.319Z,100831.53
2024-01-20T09:09:26.902Z,100851.75
2024-01-20T09:11:53.432Z,100864.13
2024-01-20T09:14:19.939Z,100873.97
2024-01-20T09:16:46.600Z,100864.44
2024-01-20T09:19:13.232Z,100871.53
2024-01-20T09:21:39.838Z,100848.56
2024-01-20T09:24:06.623Z,100863.16
2024-01-20T09:26:33.177Z,100873.22
2024-01-20T09:28:59.726Z,100862.97
2024-01-20T09:31:26.236Z,100866.44
2024-01-20T09:33:52.919Z,100859.91
2024-01-20T09:36:19.521Z,100860.72
2024-01-20T09:38:46.060Z,100868.25
2024-01-20T09:41:12.942Z,100867.38
2024-01-20T09:43:40.462Z,100800.78
2024-01-20T09:46:08.008Z,100870.53
2024-01-20T09:48:34.635Z,100841.81
2024-01-20T09:51:01.307Z,100865.63
2024-01-20T09:53:28.447Z,100850.94
2024-01-20T09:55:56.359Z,100842.88
2024-01-20T09:58:23.107Z,100858.03
2024-01-20T10:00:50.878Z,100846.25
2024-01-20T10:03:18.589Z,100839.75
2024-01-20T10:05:45.258Z,100843.06
2024-01-20T10:08:12.308Z,100859.66
2024-01-20T10:10:38.882Z,100813.16
2024-01-20T10:13:05.433Z,100841.47
2024-01-20T10:15:34.494Z,100853.88
2024-01-20T10:18:09.558Z,100859.03
2024-01-20T10:20:37.643Z,100822.69
2024-01-20T10:23:06.633Z,100870.53
2024-01-20T10:25:33.518Z,100851.97
2024-01-20T10:28:00.530Z,100869.66
2024-01-20T10:30:27.816Z,100832.91
2024-01-20T10:33:04.509Z,100867.13
2024-01-20T10:35:36.599Z,100846.75
2024-01-20T10:38:09.958Z,100851.00
2024-01-20T10:40:40.007Z,100849.72
2024-01-20T10:43:14.363Z,100848.84
2024-01-20T10:45:51.718Z,100859.75
2024-01-20T10:48:27.029Z,100857.88
2024-01-20T10:50:58.435Z,100862.72
2024-01-20T10:53:31.986Z,100865.13
2024-01-20T10:55:59.555Z,100757.66
2024-01-20T10:58:34.685Z,100841.97
2024-01-20T11:01:01.524Z,100844.06
2024-01-20T11:03:29.220Z,100840.00
2024-01-20T11:05:55.839Z,100833.25
2024-01-20T11:08:27.142Z,100848.97
2024-01-20T11:10:55.552Z,100846.13
2024-01-20T11:13:27.338Z,100847.00
2024-01-20T11:15:54.179Z,100853.03
2024-01-20T11:18:22.560Z,100854.75
2024-01-20T11:21:02.684Z,100861.84
2024-01-20T11:23:30.069Z,100852.16
2024-01-20T11:25:58.370Z,100844.41
2024-01-20T11:28:31.931Z,100852.25
2024-01-20T11:30:59.220Z,100842.19
2024-01-20T11:33:26.240Z,100840.00
2024-01-20T11:35:53.974Z,100844.72
2024-01-20T11:38:21.461Z,100842.75
2024-01-20T11:41:00.958Z,100853.13
2024-01-20T11:43:27.901Z,100847.84
2024-01-20T11:45:56.058Z,100821.66
2024-01-20T11:48:23.134Z,100851.59
2024-01-20T11:50:50.796Z,100842.31
2024-01-20T11:53:17.708Z,100847.66
2024-01-20T11:55:59.804Z,100841.28
2024-01-20T11:58:27.913Z,100840.84
2024-01-20T12:00:56.405Z,100848.06
2024-01-20T12:03:23.402Z,100795.47
2024-01-20T12:05:51.326Z,100831.78
2024-01-20T12:08:18.889Z,100826.00
2024-01-20T12:10:48.849Z,100829.38
2024-01-20T12:13:17.533Z,100815.84
2024-01-20T12:15:45.041Z,100820.31
2024-01-20T12:18:11.801Z,100824.91
2024-01-20T12:20:38.893Z,100813.34
2024-01-20T12:23:05.660Z,100778.66
2024-01-20T12:25:33.211Z,100808.31
2024-01-20T12:28:00.304Z,100796.44
2024-01-20T12:30:27.955Z,100805.25
2024-01-20T12:32:54.519Z,100807.53
2024-01-20T12:35:21.189Z,100797.38
2024-01-20T12:37:49.967Z,100795.44
2024-01-20T12:40:16.972Z,100794.34
2024-01-20T12:42:43.859Z,100796.94
2024-01-20T12:45:12.162Z,100784.72
2024-01-20T12:47:39.462Z,100760.63
2024-01-20T12:50:06.566Z,100802.16
2024-01-20T12:52:33.451Z,100796.06
2024-01-20T12:55:00.527Z,100810.28
2024-01-20T12:57:27.060Z,100818.56
2024-01-20T12:59:53.669Z,100805.03
2024-01-20T13:02:20.281Z,100793.13
2024-01-20T13:04:46.972Z,100775.16
2024-01-20T13:07:15.248Z,100812.78
2024-01-20T13:09:42.552Z,100801.88
2024-01-20T13:12:09.693Z,100795.00
2024-01-20T13:14:36.648Z,100795.00
2024-01-20T13:17:04.046Z,100802.25
2024-01-20T13:19:31.112Z,100798.69
2024-01-20T13:21:57.808Z,100814.38
2024-01-20T13:24:24.488Z,100808.28
2024-01-20T13:26:51.262Z,100808.00
2024-01-20T13:29:17.979Z,100826.88
2024-01-20T13:31:44.527Z,100779.97
2024-01-20T13:34:11.516Z,100779.53
2024-01-20T13:36:38.216Z,100818.78
2024-01-20T13:39:06.282Z,100822.72
2024-01-20T13:41:34.766Z,100826.34
2024-01-20T13:44:01.257Z,100793.16
2024-01-20T13:46:27.781Z,100832.19
2024-01-20T13:48:54.463Z,100838.97
2024-01-20T13:51:22.975Z,100836.47
2024-01-20T13:53:49.649Z,100819.00
2024-01-20T13:56:16.192Z,100836.16
2024-01-20T13:58:42.681Z,100826.44
2024-01-20T14:01:09.541Z,100829.28
2024-01-20T14:03:36.332Z,100846.88
2024-01-20T14:06:04.054Z,100850.03
2024-01-20T14:08:30.764Z,100837.81
2024-01-20T14:10:57.413Z,100844.56
2024-01-20T14:13:23.907Z,100819.91
2024-01-20T14:15:50.652Z,100850.47
2024-01-20T14:18:17.418Z,100827.88
2024-01-20T14:20:44.061Z,100848.31
2024-01-20T14:23:10.616Z,100848.19
2024-01-20T14:25:37.170Z,100844.91
2024-01-20T14:28:05.189Z,100832.59
2024-01-20T14:30:31.926Z,100840.91
2024-01-20T14:32:58.560Z,100839.38
2024-01-20T14:35:27.047Z,100836.78
2024-01-20T14:37:54.514Z,100830.31
2024-01-20T14:40:21.415Z,100820.72
2024-01-20T14:42:48.285Z,100835.69
2024-01-20T14:45:15.333Z,100841.53
2024-01-20T14:47:41.979Z,100815.56
2024-01-20T14:50:09.255Z,100831.94
2024-01-20T14:52:35.825Z,100841.19
2024-01-20T14:55:02.602Z,100838.03
2024-01-20T14:57:29.209Z,100857.22
2024-01-20T14:59:55.713Z,100826.44
2024-01-20T15:02:22.235Z,100865.06
2024-01-20T15:04:48.888Z,100857.50
2024-01-20T15:07:15.442Z,100861.88
2024-01-20T15:09:42.528Z,100836.31
2024-01-20T15:12:09.472Z,100880.94
2024-01-20T15:14:36.194Z,100879.13
2024-01-20T15:17:02.705Z,100873.66
2024-01-20T15:19:29.449Z,100861.94
2024-01-20T15:21:56.137Z,100884.09
2024-01-20T15:24:22.724Z,100853.16
2024-01-20T15:26:49.225Z,100895.94
2024-01-20T15:29:15.750Z,100898.97
2024-01-20T15:31:42.262Z,100889.66
2024-01-20T15:34:08.969Z,100897.66
2024-01-20T15:36:35.635Z,100863.97
2024-01-20T15:39:02.272Z,100897.25
2024-01-20T15:41:28.989Z,100856.22
2024-01-20T15:43:55.580Z,100885.91
2024-01-20T15:46:22.107Z,100895.53
2024-01-20T15:48:48.794Z,100898.19
2024-01-20T15:51:15.635Z,100896.50
2024-01-20T15:53:42.382Z,100865.78
2024-01-20T15:56:11.374Z,100889.00
2024-01-20T15:58:42.333Z,100894.13
2024-01-20T16:01:09.192Z,100893.44
2024-01-20T16:03:35.843Z,100838.13
2024-01-20T16:06:02.630Z,100894.31
2024-01-20T16:08:29.290Z,100888.59
2024-01-20T16:10:55.905Z,100897.44
2024-01-20T16:13:22.507Z,100864.59
2024-01-20T16:15:49.090Z,100901.56
2024-01-20T16:18:16.472Z,100907.84
2024-01-20T16:20:43.062Z,100907.38
2024-01-20T16:23:10.559Z,100915.25
2024-01-20T16:25:37.118Z,100912.53
2024-01-20T16:28:03.807Z,100913.81
2024-01-20T16:30:30.609Z,100921.16
2024-01-20T16:32:57.243Z,100923.66
2024-01-20T16:35:23.720Z,100926.41
2024-01-20T16:37:50.395Z,100925.53
2024-01-20T16:40:16.924Z,100921.41
2024-01-20T16:42:43.578Z,100920.63
2024-01-20T16:45:10.563Z,100919.16
2024-01-20T16:47:37.256Z,100920.75
2024-01-20T16:50:04.221Z,100898.13
2024-01-20T16:52:30.962Z,100918.00
2024-01-20T16:54:57.486Z,100912.38
2024-01-20T16:57:40.446Z,100909.00
2024-01-20T17:00:09.316Z,100923.09
2024-01-20T17:02:36.255Z,100911.38
2024-01-20T17:05:03.052Z,100925.66
2024-01-20T17:07:29.624Z,100920.78
2024-01-20T17:09:56.156Z,100923.91
2024-01-20T17:12:23.828Z,100926.41
2024-01-20T17:14:50.376Z,100895.78
2024-01-20T17:17:16.966Z,100934.91
2024-01-20T17:19:43.605Z,100898.66
2024-01-20T17:22:10.186Z,100913.88
2024-01-20T17:24:38.490Z,100935.66
2024-01-20T17:27:05.522Z,100936.56
2024-01-20T17:29:33.184Z,100946.44
2024-01-20T17:32:02.716Z,100908.94
2024-01-20T17:34:29.730Z,100917.19
2024-01-20T17:36:56.867Z,100930.81
2024-01-20T17:39:25.676Z,100951.31
2024-01-20T17:41:58.928Z,100928.69
2024-01-20T17:44:25.603Z,100932.56
2024-01-20T17:46:52.152Z,100962.19
2024-01-20T17:49:18.762Z,100960.97
2024-01-20T17:51:45.572Z,100957.47
2024-01-20T17:54:12.340Z,100957.47
2024-01-20T17:56:39.403Z,100961.47
2024-01-20T17:59:05.867Z,100949.69
2024-01-20T18:01:32.982Z,100951.94
2024-01-20T18:03:59.749Z,100956.69
2024-01-20T18:06:27.100Z,100954.44
2024-01-20T18:08:53.689Z,100920.69
2024-01-20T18:11:20.234Z,100959.97
2024-01-20T18:13:46.768Z,100963.72
2024-01-20T18:16:13.375Z,100930.84
2024-01-20T18:18:39.922Z,100967.97
2024-01-20T18:21:07.450Z,100962.09
2024-01-20T18:23:33.982Z,100965.84
2024-01-20T18:26:00.612Z,100969.97
2024-01-20T18:28:27.892Z,100938.31
2024-01-20T18:30:54.749Z,100969.50
2024-01-20T18:33:22.497Z,100982.47
2024-01-20T18:35:49.113Z,100981.00
2024-01-20T18:38:16.722Z,100974.22
2024-01-20T18:40:43.302Z,100977.19
2024-01-20T18:43:10.173Z,100987.72
2024-01-20T18:45:36.723Z,100997.13
2024-01-20T18:48:03.654Z,100959.09
2024-01-20T18:50:30.712Z,100989.47
2024-01-20T18:52:57.775Z,100976.72
2024-01-20T18:55:24.352Z,100998.13
2024-01-20T18:57:53.419Z,101000.63
2024-01-20T19:00:20.011Z,100992.22
2024-01-20T19:02:46.587Z,100940.34
2024-01-20T19:05:13.514Z,100977.72
2024-01-20T19:07:40.072Z,101004.09
2024-01-20T19:10:10.774Z,101015.84
2024-01-20T19:12:38.504Z,101008.84
2024-01-20T19:15:09.181Z,101026.75
2024-01-20T19:17:36.284Z,101026.50
2024-01-20T19:20:02.861Z,101017.72
2024-01-20T19:22:29.592Z,101015.88
2024-01-20T19:24:57.122Z,101009.63
2024-01-20T19:27:23.766Z,101031.75
2024-01-20T19:29:50.333Z,101022.88
2024-01-20T19:32:17.713Z,101024.75
2024-01-20T19:34:45.281Z,101030.28
2024-01-20T19:37:12.227Z,101034.53
2024-01-20T19:39:39.183Z,101023.00
2024-01-20T19:42:05.827Z,101031.63
2024-01-20T19:44:32.297Z,101031.28
2024-01-20T19:46:58.787Z,101007.72
2024-01-20T19:49:25.762Z,101024.66
2024-01-20T19:51:52.576Z,101019.63
2024-01-20T19:54:19.115Z,101020.84
2024-01-20T19:56:46.785Z,101016.50
2024-01-20T19:59:14.774Z,101021.50
2024-01-20T20:01:50.576Z,100995.97
2024-01-20T20:04:18.611Z,101027.13
2024-01-20T20:06:46.373Z,101032.75
2024-01-20T20:09:13.722Z,101018.63
2024-01-20T20:11:41.169Z,101026.38
2024-01-20T20:14:11.931Z,101032.63
2024-01-20T20:16:41.160Z,101034.22
2024-01-20T20:19:08.521Z,101031.81
2024-01-20T20:21:35.236Z,101017.31
2024-01-20T20:24:01.757Z,101001.28
2024-01-20T20:26:28.423Z,101031.41
2024-01-20T20:28:54.902Z,100978.59
2024-01-20T20:31:23.449Z,101035.25
2024-01-20T20:33:51.225Z,101036.13
2024-01-20T20:36:20.312Z,101039.00
2024-01-20T20:38:47.337Z,101031.00
2024-01-20T20:41:13.841Z,101038.38
2024-01-20T20:43:40.342Z,101033.78
2024-01-20T20:46:07.095Z,101039.78
2024-01-20T20:48:33.728Z,101000.59
2024-01-20T20:51:00.254Z,101034.78
2024-01-20T20:53:26.947Z,101026.53
2024-01-20T20:55:53.523Z,101025.94
2024-01-20T20:58:20.097Z,101026.94
2024-01-20T21:00:46.623Z,101016.03
2024-01-20T21:03:13.739Z,101024.03
2024-01-20T21:05:40.633Z,101027.78
2024-01-20T21:08:07.494Z,101022.88
2024-01-20T21:10:34.108Z,101016.75
2024-01-20T21:13:00.823Z,101015.75
2024-01-20T21:15:27.636Z,101019.84
2024-01-20T21:17:54.398Z,100985.94
2024-01-20T21:20:21.217Z,101031.34
2024-01-20T21:22:47.875Z,101038.56
2024-01-20T21:25:14.823Z,101034.72
2024-01-20T21:27:41.642Z,101004.72
2024-01-20T21:30:08.870Z,101011.47
2024-01-20T21:32:35.599Z,101038.88
2024-01-20T21:35:02.801Z,101045.59
2024-01-20T21:37:29.410Z,101041.34
2024-01-20T21:39:55.942Z,101044.06
2024-01-20T21:42:22.481Z,100986.97
2024-01-20T21:44:49.427Z,101013.00
2024-01-20T21:47:15.918Z,101044.81
2024-01-20T21:49:42.465Z,101040.16
2024-01-20T21:52:09.001Z,101031.25
2024-01-20T21:54:35.752Z,101038.59
2024-01-20T21:57:02.295Z,101037.50
2024-01-20T21:59:28.883Z,100988.38
2024-01-20T22:01:55.416Z,101033.91
2024-01-20T22:04:22.205Z,101045.00
2024-01-20T22:06:51.031Z,101044.31
2024-01-20T22:09:17.801Z,101041.34
2024-01-20T22:11:44.340Z,101042.66
2024-01-20T22:14:10.864Z,101045.53
2024-01-20T22:16:37.380Z,101001.59
2024-01-20T22:19:04.002Z,101048.13
2024-01-20T22:21:30.873Z,101021.94
2024-01-20T22:23:57.486Z,101044.56
2024-01-20T22:26:23.956Z,101042.94
2024-01-20T22:28:50.477Z,101035.84
2024-01-20T22:31:17.183Z,101063.69
2024-01-20T22:33:43.901Z,101049.06
2024-01-20T22:36:10.449Z,101055.56
2024-01-20T22:38:37.417Z,101054.63
2024-01-20T22:41:06.132Z,101050.78
2024-01-20T22:43:32.732Z,101048.91
2024-01-20T22:45:59.303Z,101045.41
2024-01-20T22:48:26.124Z,101044.53
2024-01-20T22:50:52.786Z,101035.97
2024-01-20T22:53:19.291Z,101019.69
2024-01-20T22:55:45.830Z,101032.81
2024-01-20T22:58:12.408Z,101046.63
2024-01-20T23:00:40.100Z,101019.22
2024-01-20T23:03:06.855Z,101042.16
2024-01-20T23:05:33.529Z,101038.53
2024-01-20T23:08:00.111Z,101042.22
2024-01-20T23:10:27.423Z,101046.53
2024-01-20T23:12:54.038Z,101037.28
2024-01-20T23:15:20.738Z,101031.69
2024-01-20T23:17:47.286Z,101038.13
2024-01-20T23:20:15.820Z,101031.66
2024-01-20T23:22:42.611Z,100991.78
2024-01-20T23:25:10.466Z,101034.66
2024-01-20T23:27:37.445Z,101034.66
2024-01-20T23:30:04.430Z,101013.91
2024-01-20T23:32:31.169Z,101020.38
2024-01-20T23:34:57.876Z,101025.78
2024-01-20T23:37:24.799Z,101047.06
2024-01-20T23:39:51.353Z,101038.94
2024-01-20T23:42:17.965Z,101038.69
2024-01-20T23:44:44.504Z,101042.38
2024-01-20T23:47:11.005Z,101043.78
2024-01-20T23:49:37.760Z,101046.19
2024-01-20T23:52:05.002Z,101039.91
2024-01-20T23:54:31.538Z,101016.41
2024-01-20T23:56:58.062Z,101041.56
2024-01-20T23:59:24.523Z,101042.91
